createdAt,value
2022-12-11T09:13:29.455Z,16.50
2022-12-11T09:21:34.859Z,16.20
2022-12-11T09:29:46.348Z,16.20
2022-12-11T09:37:52.406Z,15.60
2022-12-11T09:46:03.866Z,15.50
2022-12-11T09:54:09.707Z,15.20
2022-12-11T10:02:30.597Z,15.10
2022-12-11T10:10:44.707Z,15.00
2022-12-11T10:18:53.127Z,15.60
2022-12-11T10:27:01.608Z,15.60
2022-12-11T10:35:12.665Z,15.00
2022-12-11T10:43:19.529Z,14.80
2022-12-11T10:51:31.565Z,14.70
2022-12-11T10:59:41.039Z,14.50
2022-12-11T11:07:49.186Z,14.40
2022-12-11T11:16:02.962Z,14.40
2022-12-11T11:24:27.781Z,14.10
2022-12-11T11:32:39.387Z,13.90
2022-12-11T11:40:55.509Z,13.90
2022-12-11T11:49:10.690Z,13.60
2022-12-11T11:57:25.789Z,13.60
2022-12-11T12:05:39.504Z,13.50
2022-12-11T12:13:55.073Z,13.60
2022-12-11T12:22:08.101Z,13.40
2022-12-11T12:30:22.958Z,13.20
2022-12-11T12:38:36.902Z,13.40
2022-12-11T12:46:54.339Z,13.00
2022-12-11T12:55:19.053Z,13.10
2022-12-11T13:03:31.808Z,12.80
2022-12-11T13:11:39.015Z,12.90
2022-12-11T13:19:47.686Z,12.80
2022-12-11T13:27:53.059Z,12.90
2022-12-11T13:36:34.913Z,12.90
2022-12-11T13:44:44.492Z,12.70
2022-12-11T13:52:59.957Z,12.70
2022-12-11T14:01:11.511Z,12.50
2022-12-11T14:09:23.481Z,12.50
2022-12-11T14:17:31.368Z,12.60
2022-12-11T14:25:39.325Z,12.50
2022-12-11T14:33:49.939Z,12.40
2022-12-11T14:42:04.645Z,12.50
2022-12-11T14:50:14.430Z,12.40
2022-12-11T14:58:27.005Z,12.40
2022-12-11T15:06:34.736Z,12.40
2022-12-11T15:14:51.012Z,12.50
2022-12-11T15:23:00.786Z,12.50
2022-12-11T15:31:12.084Z,12.30
2022-12-11T15:39:17.376Z,11.80
2022-12-11T15:47:28.967Z,11.90
2022-12-11T15:55:35.447Z,11.60
2022-12-11T16:03:43.337Z,11.60
2022-12-11T16:11:49.127Z,11.50
2022-12-11T16:19:58.120Z,11.60
2022-12-11T16:28:04.834Z,11.50
2022-12-11T16:36:19.205Z,11.40
2022-12-11T16:44:27.466Z,11.30
2022-12-11T16:52:35.707Z,11.00
2022-12-11T17:00:41.758Z,11.10
2022-12-11T17:08:50.004Z,11.10
2022-12-11T17:16:57.833Z,11.10
2022-12-11T17:25:05.836Z,11.00
2022-12-11T17:33:11.307Z,10.70
2022-12-11T17:41:21.339Z,10.40
2022-12-11T17:49:26.794Z,10.30
2022-12-11T17:57:35.246Z,10.20
2022-12-11T18:05:45.460Z,10.30
2022-12-11T18:13:55.156Z,10.60
2022-12-11T18:22:01.810Z,10.30
2022-12-11T18:30:12.689Z,10.40
2022-12-11T18:38:21.272Z,10.30
2022-12-11T18:46:31.652Z,10.40
2022-12-11T18:54:37.084Z,10.20
2022-12-11T19:02:45.053Z,10.20
2022-12-11T19:10:50.647Z,10.10
2022-12-11T19:19:00.305Z,10.00
2022-12-11T19:27:11.700Z,9.80
2022-12-11T19:35:21.515Z,9.80
2022-12-11T19:43:26.902Z,9.80
2022-12-11T19:51:38.560Z,9.60
2022-12-11T19:59:44.020Z,9.70
2022-12-11T20:07:51.989Z,9.80
2022-12-11T20:15:57.604Z,9.60
2022-12-11T20:32:36.600Z,9.60
2022-12-11T20:40:41.975Z,9.90
2022-12-11T20:48:50.884Z,9.70
2022-12-11T20:56:56.617Z,9.90
2022-12-11T21:05:04.732Z,10.10
2022-12-11T21:13:10.103Z,10.00
2022-12-11T21:21:18.723Z,10.00
2022-12-11T21:29:24.158Z,10.10
2022-12-11T21:37:32.103Z,10.10
2022-12-11T21:54:09.316Z,10.30
2022-12-11T22:02:15.663Z,10.00
2022-12-11T22:10:23.541Z,9.90
2022-12-11T22:18:30.036Z,10.20
2022-12-11T22:26:38.156Z,10.30
2022-12-11T22:34:43.650Z,10.10
2022-12-11T22:42:51.652Z,9.90
2022-12-11T22:50:57.588Z,9.80
2022-12-11T22:59:05.445Z,9.80
2022-12-11T23:07:10.881Z,9.50
2022-12-11T23:15:18.810Z,9.50
2022-12-11T23:23:24.872Z,9.40
2022-12-11T23:31:33.230Z,9.40
2022-12-11T23:39:38.568Z,9.60
2022-12-11T23:47:46.524Z,9.70
2022-12-11T23:55:51.858Z,9.80
